Terminal Aerodrome Forecast
Issued by NWS Memphis, TN

Home | Current Version | Previous Version | Text Only | Print | Product List | Glossary On
Versions: 1 2 3 4 5 6 7 8 9 10 11 12 13 14 15
675
FTUS44 KMEG 271130
TAFJBR
TAF
KJBR 271130Z 2712/2812 22006KT P6SM SCT045
     FM271600 04006KT P6SM VCTS SCT040CB BKN150
     FM280000 02003KT P6SM SCT050 OVC120
     FM280600 VRB03KT P6SM OVC250=

USA.gov is the U.S. government's official web portal to all federal, state and local government web resources and services.